sensor_id;sensor_type;location;lat;lon;timestamp;temperature;humidity
24522;DHT22;12680;57.804;12.190;2023-10-31T00:01:17;4.70;99.90
24522;DHT22;12680;57.804;12.190;2023-10-31T00:03:44;4.70;99.90
24522;DHT22;12680;57.804;12.190;2023-10-31T00:06:11;4.60;99.90
24522;DHT22;12680;57.804;12.190;2023-10-31T00:08:38;4.70;99.90
24522;DHT22;12680;57.804;12.190;2023-10-31T00:11:05;4.60;99.90
24522;DHT22;12680;57.804;12.190;2023-10-31T00:13:32;6.60;99.90
24522;DHT22;12680;57.804;12.190;2023-10-31T00:15:59;4.60;99.90
24522;DHT22;12680;57.804;12.190;2023-10-31T00:18:26;4.60;99.90
24522;DHT22;12680;57.804;12.190;2023-10-31T00:20:53;4.60;99.90
24522;DHT22;12680;57.804;12.190;2023-10-31T00:23:20;4.60;99.90
24522;DHT22;12680;57.804;12.190;2023-10-31T00:25:46;4.60;99.90
24522;DHT22;12680;57.804;12.190;2023-10-31T00:28:13;4.50;99.90
24522;DHT22;12680;57.804;12.190;2023-10-31T00:30:40;4.60;99.90
24522;DHT22;12680;57.804;12.190;2023-10-31T00:33:07;4.60;99.90
24522;DHT22;12680;57.804;12.190;2023-10-31T00:35:33;4.60;99.90
24522;DHT22;12680;57.804;12.190;2023-10-31T00:38:00;4.50;99.90
24522;DHT22;12680;57.804;12.190;2023-10-31T00:40:27;4.50;99.90
24522;DHT22;12680;57.804;12.190;2023-10-31T00:42:54;4.50;99.90
24522;DHT22;12680;57.804;12.190;2023-10-31T00:45:22;4.40;99.90
24522;DHT22;12680;57.804;12.190;2023-10-31T00:47:49;4.40;99.90
24522;DHT22;12680;57.804;12.190;2023-10-31T00:50:16;4.40;99.90
24522;DHT22;12680;57.804;12.190;2023-10-31T00:52:42;4.30;99.90
24522;DHT22;12680;57.804;12.190;2023-10-31T00:55:09;4.30;99.90
24522;DHT22;12680;57.804;12.190;2023-10-31T00:57:37;4.30;99.90
24522;DHT22;12680;57.804;12.190;2023-10-31T01:00:04;4.30;99.90
24522;DHT22;12680;57.804;12.190;2023-10-31T01:02:31;4.20;99.90
24522;DHT22;12680;57.804;12.190;2023-10-31T01:04:58;4.20;99.90
24522;DHT22;12680;57.804;12.190;2023-10-31T01:07:25;4.20;99.90
24522;DHT22;12680;57.804;12.190;2023-10-31T01:09:52;4.10;99.90
24522;DHT22;12680;57.804;12.190;2023-10-31T01:12:18;4.10;99.90
24522;DHT22;12680;57.804;12.190;2023-10-31T01:14:45;4.10;99.90
24522;DHT22;12680;57.804;12.190;2023-10-31T01:17:12;4.00;99.90
24522;DHT22;12680;57.804;12.190;2023-10-31T01:19:39;4.10;99.90
24522;DHT22;12680;57.804;12.190;2023-10-31T01:22:05;4.00;99.90
24522;DHT22;12680;57.804;12.190;2023-10-31T01:24:35;4.00;99.90
24522;DHT22;12680;57.804;12.190;2023-10-31T01:27:01;4.00;99.90
24522;DHT22;12680;57.804;12.190;2023-10-31T01:29:29;3.90;99.90
24522;DHT22;12680;57.804;12.190;2023-10-31T01:31:56;3.90;99.90
24522;DHT22;12680;57.804;12.190;2023-10-31T01:34:28;3.90;99.90
24522;DHT22;12680;57.804;12.190;2023-10-31T01:36:55;4.00;99.90
24522;DHT22;12680;57.804;12.190;2023-10-31T01:39:22;4.00;99.90
24522;DHT22;12680;57.804;12.190;2023-10-31T01:41:49;4.00;99.90
24522;DHT22;12680;57.804;12.190;2023-10-31T01:44:15;4.00;99.90
24522;DHT22;12680;57.804;12.190;2023-10-31T01:46:42;4.00;99.90
24522;DHT22;12680;57.804;12.190;2023-10-31T01:49:09;4.00;99.90
24522;DHT22;12680;57.804;12.190;2023-10-31T01:51:36;4.00;99.90
24522;DHT22;12680;57.804;12.190;2023-10-31T01:54:03;4.10;99.90
24522;DHT22;12680;57.804;12.190;2023-10-31T01:56:30;4.10;99.90
24522;DHT22;12680;57.804;12.190;2023-10-31T01:58:57;4.10;99.90
24522;DHT22;12680;57.804;12.190;2023-10-31T02:01:24;4.00;99.90
24522;DHT22;12680;57.804;12.190;2023-10-31T02:03:50;4.00;99.90
24522;DHT22;12680;57.804;12.190;2023-10-31T02:06:17;4.00;99.90
24522;DHT22;12680;57.804;12.190;2023-10-31T02:08:44;4.00;99.90
24522;DHT22;12680;57.804;12.190;2023-10-31T02:11:11;3.90;99.90
24522;DHT22;12680;57.804;12.190;2023-10-31T02:13:37;4.00;99.90
24522;DHT22;12680;57.804;12.190;2023-10-31T02:16:05;4.00;99.90
24522;DHT22;12680;57.804;12.190;2023-10-31T02:18:32;3.90;99.90
24522;DHT22;12680;57.804;12.190;2023-10-31T02:20:59;4.00;99.90
24522;DHT22;12680;57.804;12.190;2023-10-31T02:23:26;4.00;99.90
24522;DHT22;12680;57.804;12.190;2023-10-31T02:25:53;4.00;99.90
24522;DHT22;12680;57.804;12.190;2023-10-31T02:28:20;4.00;99.90
24522;DHT22;12680;57.804;12.190;2023-10-31T02:30:46;4.00;99.90
24522;DHT22;12680;57.804;12.190;2023-10-31T02:33:13;4.00;99.90
24522;DHT22;12680;57.804;12.190;2023-10-31T02:35:40;3.90;99.90
24522;DHT22;12680;57.804;12.190;2023-10-31T02:38:07;3.90;99.90
24522;DHT22;12680;57.804;12.190;2023-10-31T02:40:33;3.90;99.90
24522;DHT22;12680;57.804;12.190;2023-10-31T02:43:00;4.00;99.90
24522;DHT22;12680;57.804;12.190;2023-10-31T02:45:28;4.00;99.90
24522;DHT22;12680;57.804;12.190;2023-10-31T02:47:55;4.00;99.90
24522;DHT22;12680;57.804;12.190;2023-10-31T02:50:22;4.10;99.90
24522;DHT22;12680;57.804;12.190;2023-10-31T02:52:48;4.10;99.90
24522;DHT22;12680;57.804;12.190;2023-10-31T02:55:15;4.00;99.90
24522;DHT22;12680;57.804;12.190;2023-10-31T02:57:42;4.00;99.90
24522;DHT22;12680;57.804;12.190;2023-10-31T03:00:09;4.00;99.90
24522;DHT22;12680;57.804;12.190;2023-10-31T03:02:36;3.90;99.90
24522;DHT22;12680;57.804;12.190;2023-10-31T03:05:03;3.90;99.90
24522;DHT22;12680;57.804;12.190;2023-10-31T03:07:30;3.90;99.90
24522;DHT22;12680;57.804;12.190;2023-10-31T03:09:57;3.80;99.90
24522;DHT22;12680;57.804;12.190;2023-10-31T03:12:23;3.80;99.90
24522;DHT22;12680;57.804;12.190;2023-10-31T03:14:51;3.70;99.90
24522;DHT22;12680;57.804;12.190;2023-10-31T03:17:17;3.70;99.90
24522;DHT22;12680;57.804;12.190;2023-10-31T03:19:44;3.70;99.90
24522;DHT22;12680;57.804;12.190;2023-10-31T03:22:11;3.60;99.90
24522;DHT22;12680;57.804;12.190;2023-10-31T03:24:38;3.60;99.90
24522;DHT22;12680;57.804;12.190;2023-10-31T03:27:04;3.60;99.90
24522;DHT22;12680;57.804;12.190;2023-10-31T03:29:31;4.70;99.90
24522;DHT22;12680;57.804;12.190;2023-10-31T03:31:58;3.50;99.90
24522;DHT22;12680;57.804;12.190;2023-10-31T03:34:24;3.50;99.90
24522;DHT22;12680;57.804;12.190;2023-10-31T03:36:51;3.50;99.90
24522;DHT22;12680;57.804;12.190;2023-10-31T03:39:18;3.50;99.90
24522;DHT22;12680;57.804;12.190;2023-10-31T03:41:45;3.50;99.90
24522;DHT22;12680;57.804;12.190;2023-10-31T03:44:13;3.50;99.90
24522;DHT22;12680;57.804;12.190;2023-10-31T03:46:40;3.50;99.90
24522;DHT22;12680;57.804;12.190;2023-10-31T03:49:06;3.50;99.90
24522;DHT22;12680;57.804;12.190;2023-10-31T03:51:34;3.50;99.90
24522;DHT22;12680;57.804;12.190;2023-10-31T03:54:01;3.50;99.90
24522;DHT22;12680;57.804;12.190;2023-10-31T03:56:27;3.50;99.90
24522;DHT22;12680;57.804;12.190;2023-10-31T03:58:54;3.50;99.90
24522;DHT22;12680;57.804;12.190;2023-10-31T04:01:21;3.60;99.90
24522;DHT22;12680;57.804;12.190;2023-10-31T04:03:48;3.60;99.90
24522;DHT22;12680;57.804;12.190;2023-10-31T04:06:14;3.60;99.90
24522;DHT22;12680;57.804;12.190;2023-10-31T04:08:41;3.50;99.90
24522;DHT22;12680;57.804;12.190;2023-10-31T04:11:08;3.50;99.90
24522;DHT22;12680;57.804;12.190;2023-10-31T04:13:34;3.50;99.90
24522;DHT22;12680;57.804;12.190;2023-10-31T04:16:01;3.50;99.90
24522;DHT22;12680;57.804;12.190;2023-10-31T04:18:28;3.60;99.90
24522;DHT22;12680;57.804;12.190;2023-10-31T04:20:55;3.70;99.90
24522;DHT22;12680;57.804;12.190;2023-10-31T04:23:21;3.70;99.90
24522;DHT22;12680;57.804;12.190;2023-10-31T04:25:48;3.70;99.90
24522;DHT22;12680;57.804;12.190;2023-10-31T04:28:15;3.70;99.90
24522;DHT22;12680;57.804;12.190;2023-10-31T04:30:42;3.60;99.90
24522;DHT22;12680;57.804;12.190;2023-10-31T04:33:08;3.60;99.90
24522;DHT22;12680;57.804;12.190;2023-10-31T04:35:35;3.60;99.90
24522;DHT22;12680;57.804;12.190;2023-10-31T04:38:02;3.60;99.90
24522;DHT22;12680;57.804;12.190;2023-10-31T04:40:29;3.50;99.90
24522;DHT22;12680;57.804;12.190;2023-10-31T04:42:55;3.40;99.90
24522;DHT22;12680;57.804;12.190;2023-10-31T04:45:22;3.40;99.90
24522;DHT22;12680;57.804;12.190;2023-10-31T04:47:49;3.40;99.90
24522;DHT22;12680;57.804;12.190;2023-10-31T04:50:16;3.30;99.90
24522;DHT22;12680;57.804;12.190;2023-10-31T04:52:43;3.20;99.90
24522;DHT22;12680;57.804;12.190;2023-10-31T04:55:10;3.20;99.90
24522;DHT22;12680;57.804;12.190;2023-10-31T04:57:36;3.10;99.90
24522;DHT22;12680;57.804;12.190;2023-10-31T05:00:03;3.10;99.90
24522;DHT22;12680;57.804;12.190;2023-10-31T05:02:33;3.00;99.90
24522;DHT22;12680;57.804;12.190;2023-10-31T05:04:59;3.00;99.90
24522;DHT22;12680;57.804;12.190;2023-10-31T05:07:26;2.90;99.90
24522;DHT22;12680;57.804;12.190;2023-10-31T05:09:53;2.90;99.90
24522;DHT22;12680;57.804;12.190;2023-10-31T05:12:20;3.00;99.90
24522;DHT22;12680;57.804;12.190;2023-10-31T05:14:46;3.00;99.90
24522;DHT22;12680;57.804;12.190;2023-10-31T05:17:13;3.10;99.90
24522;DHT22;12680;57.804;12.190;2023-10-31T05:19:40;3.00;99.90
24522;DHT22;12680;57.804;12.190;2023-10-31T05:22:08;3.00;99.90
24522;DHT22;12680;57.804;12.190;2023-10-31T05:24:36;3.00;99.90
24522;DHT22;12680;57.804;12.190;2023-10-31T05:27:03;3.00;99.90
24522;DHT22;12680;57.804;12.190;2023-10-31T05:29:30;2.90;99.90
24522;DHT22;12680;57.804;12.190;2023-10-31T05:31:57;2.90;99.90
24522;DHT22;12680;57.804;12.190;2023-10-31T05:34:24;2.80;99.90
24522;DHT22;12680;57.804;12.190;2023-10-31T05:36:50;2.90;99.90
24522;DHT22;12680;57.804;12.190;2023-10-31T05:39:17;2.90;99.90
24522;DHT22;12680;57.804;12.190;2023-10-31T05:41:44;2.90;99.90
24522;DHT22;12680;57.804;12.190;2023-10-31T05:44:11;2.80;99.90
24522;DHT22;12680;57.804;12.190;2023-10-31T05:46:38;5.60;99.90
24522;DHT22;12680;57.804;12.190;2023-10-31T05:49:07;2.80;99.90
24522;DHT22;12680;57.804;12.190;2023-10-31T05:51:34;2.80;99.90
24522;DHT22;12680;57.804;12.190;2023-10-31T05:54:02;2.80;99.90
24522;DHT22;12680;57.804;12.190;2023-10-31T05:56:29;2.80;99.90
24522;DHT22;12680;57.804;12.190;2023-10-31T05:58:55;2.90;99.90
24522;DHT22;12680;57.804;12.190;2023-10-31T06:01:22;2.90;99.90
24522;DHT22;12680;57.804;12.190;2023-10-31T06:03:49;2.90;99.90
24522;DHT22;12680;57.804;12.190;2023-10-31T06:06:16;2.90;99.90
24522;DHT22;12680;57.804;12.190;2023-10-31T06:08:43;3.50;99.90
24522;DHT22;12680;57.804;12.190;2023-10-31T06:11:10;2.90;99.90
24522;DHT22;12680;57.804;12.190;2023-10-31T06:13:39;2.90;99.90
24522;DHT22;12680;57.804;12.190;2023-10-31T06:16:07;2.90;99.90
24522;DHT22;12680;57.804;12.190;2023-10-31T06:18:34;3.80;99.90
24522;DHT22;12680;57.804;12.190;2023-10-31T06:21:01;3.00;99.90
24522;DHT22;12680;57.804;12.190;2023-10-31T06:23:28;2.90;99.90
24522;DHT22;12680;57.804;12.190;2023-10-31T06:25:58;2.90;99.90
24522;DHT22;12680;57.804;12.190;2023-10-31T06:28:25;2.90;99.90
24522;DHT22;12680;57.804;12.190;2023-10-31T06:30:52;2.90;99.90
24522;DHT22;12680;57.804;12.190;2023-10-31T06:33:18;2.90;99.90
24522;DHT22;12680;57.804;12.190;2023-10-31T06:35:45;2.90;99.90
24522;DHT22;12680;57.804;12.190;2023-10-31T06:38:12;2.90;99.90
24522;DHT22;12680;57.804;12.190;2023-10-31T06:40:39;2.90;99.90
24522;DHT22;12680;57.804;12.190;2023-10-31T06:43:06;3.00;99.90
24522;DHT22;12680;57.804;12.190;2023-10-31T06:45:33;3.00;99.90
24522;DHT22;12680;57.804;12.190;2023-10-31T06:48:00;3.00;99.90
24522;DHT22;12680;57.804;12.190;2023-10-31T06:50:26;3.00;99.90
24522;DHT22;12680;57.804;12.190;2023-10-31T06:52:53;3.10;99.90
24522;DHT22;12680;57.804;12.190;2023-10-31T06:55:20;3.10;99.90
24522;DHT22;12680;57.804;12.190;2023-10-31T06:57:47;3.10;99.90
24522;DHT22;12680;57.804;12.190;2023-10-31T07:00:14;3.10;99.90
24522;DHT22;12680;57.804;12.190;2023-10-31T07:02:41;3.10;99.90
24522;DHT22;12680;57.804;12.190;2023-10-31T07:05:08;3.20;99.90
24522;DHT22;12680;57.804;12.190;2023-10-31T07:07:36;3.30;99.90
24522;DHT22;12680;57.804;12.190;2023-10-31T07:10:03;3.30;99.90
24522;DHT22;12680;57.804;12.190;2023-10-31T07:12:30;3.30;99.90
24522;DHT22;12680;57.804;12.190;2023-10-31T07:14:57;3.30;99.90
24522;DHT22;12680;57.804;12.190;2023-10-31T07:17:28;3.30;99.90
24522;DHT22;12680;57.804;12.190;2023-10-31T07:19:54;3.40;99.90
24522;DHT22;12680;57.804;12.190;2023-10-31T07:22:22;3.40;99.90
24522;DHT22;12680;57.804;12.190;2023-10-31T07:24:52;3.40;99.90
24522;DHT22;12680;57.804;12.190;2023-10-31T07:27:18;4.60;99.90
24522;DHT22;12680;57.804;12.190;2023-10-31T07:29:46;3.40;99.90
24522;DHT22;12680;57.804;12.190;2023-10-31T07:32:13;3.40;99.90
24522;DHT22;12680;57.804;12.190;2023-10-31T07:34:43;3.50;99.90
24522;DHT22;12680;57.804;12.190;2023-10-31T07:37:10;3.60;99.90
24522;DHT22;12680;57.804;12.190;2023-10-31T07:39:37;3.60;99.90
24522;DHT22;12680;57.804;12.190;2023-10-31T07:42:04;3.50;99.90
24522;DHT22;12680;57.804;12.190;2023-10-31T07:44:31;3.50;99.90
24522;DHT22;12680;57.804;12.190;2023-10-31T07:46:58;3.40;99.90
24522;DHT22;12680;57.804;12.190;2023-10-31T07:49:24;3.40;99.90
24522;DHT22;12680;57.804;12.190;2023-10-31T07:51:51;3.40;99.90
24522;DHT22;12680;57.804;12.190;2023-10-31T07:54:18;3.40;99.90
24522;DHT22;12680;57.804;12.190;2023-10-31T07:56:45;3.40;99.90
24522;DHT22;12680;57.804;12.190;2023-10-31T07:59:13;3.40;99.90
24522;DHT22;12680;57.804;12.190;2023-10-31T08:01:39;3.40;99.90
24522;DHT22;12680;57.804;12.190;2023-10-31T08:04:06;3.40;99.90
24522;DHT22;12680;57.804;12.190;2023-10-31T08:06:33;3.50;99.90
24522;DHT22;12680;57.804;12.190;2023-10-31T08:09:00;3.50;99.90
24522;DHT22;12680;57.804;12.190;2023-10-31T08:11:27;3.50;99.90
24522;DHT22;12680;57.804;12.190;2023-10-31T08:13:54;3.50;99.90
24522;DHT22;12680;57.804;12.190;2023-10-31T08:16:21;3.60;99.90
24522;DHT22;12680;57.804;12.190;2023-10-31T08:18:48;3.60;99.90
24522;DHT22;12680;57.804;12.190;2023-10-31T08:21:15;3.70;99.90
24522;DHT22;12680;57.804;12.190;2023-10-31T08:23:42;3.60;99.90
24522;DHT22;12680;57.804;12.190;2023-10-31T08:26:11;3.60;99.90
24522;DHT22;12680;57.804;12.190;2023-10-31T08:28:39;3.60;99.90
24522;DHT22;12680;57.804;12.190;2023-10-31T08:31:06;3.60;99.90
24522;DHT22;12680;57.804;12.190;2023-10-31T08:33:33;3.60;99.90
24522;DHT22;12680;57.804;12.190;2023-10-31T08:36:00;3.60;99.90
24522;DHT22;12680;57.804;12.190;2023-10-31T08:38:27;3.70;99.90
24522;DHT22;12680;57.804;12.190;2023-10-31T08:40:58;3.70;99.90
24522;DHT22;12680;57.804;12.190;2023-10-31T08:43:26;3.70;99.90
24522;DHT22;12680;57.804;12.190;2023-10-31T08:45:53;3.70;99.90
24522;DHT22;12680;57.804;12.190;2023-10-31T08:48:20;3.70;99.90
24522;DHT22;12680;57.804;12.190;2023-10-31T08:50:47;3.80;99.90
24522;DHT22;12680;57.804;12.190;2023-10-31T08:53:14;3.80;99.90
24522;DHT22;12680;57.804;12.190;2023-10-31T08:55:41;3.80;99.90
24522;DHT22;12680;57.804;12.190;2023-10-31T08:58:12;3.90;99.90
24522;DHT22;12680;57.804;12.190;2023-10-31T09:00:45;3.90;99.90
24522;DHT22;12680;57.804;12.190;2023-10-31T09:03:11;3.90;99.90
24522;DHT22;12680;57.804;12.190;2023-10-31T09:05:39;3.90;99.90
24522;DHT22;12680;57.804;12.190;2023-10-31T09:08:06;3.90;99.90
24522;DHT22;12680;57.804;12.190;2023-10-31T09:10:36;3.90;99.90
24522;DHT22;12680;57.804;12.190;2023-10-31T09:13:04;4.00;99.90
24522;DHT22;12680;57.804;12.190;2023-10-31T09:15:31;4.00;99.90
24522;DHT22;12680;57.804;12.190;2023-10-31T09:17:58;4.00;99.90
24522;DHT22;12680;57.804;12.190;2023-10-31T09:20:25;4.00;99.90
24522;DHT22;12680;57.804;12.190;2023-10-31T09:22:52;4.10;99.90
24522;DHT22;12680;57.804;12.190;2023-10-31T09:25:19;4.10;99.90
24522;DHT22;12680;57.804;12.190;2023-10-31T09:27:46;4.10;99.90
24522;DHT22;12680;57.804;12.190;2023-10-31T09:30:12;4.20;99.90
24522;DHT22;12680;57.804;12.190;2023-10-31T09:32:39;4.20;99.90
24522;DHT22;12680;57.804;12.190;2023-10-31T09:35:06;4.20;99.90
24522;DHT22;12680;57.804;12.190;2023-10-31T09:37:35;4.30;99.90
24522;DHT22;12680;57.804;12.190;2023-10-31T09:40:02;4.30;99.90
24522;DHT22;12680;57.804;12.190;2023-10-31T09:42:28;4.30;99.90
24522;DHT22;12680;57.804;12.190;2023-10-31T09:44:56;4.30;99.90
24522;DHT22;12680;57.804;12.190;2023-10-31T09:47:22;4.30;99.90
24522;DHT22;12680;57.804;12.190;2023-10-31T09:49:49;4.40;99.90
24522;DHT22;12680;57.804;12.190;2023-10-31T09:52:17;4.40;99.90
24522;DHT22;12680;57.804;12.190;2023-10-31T09:54:48;4.40;99.90
24522;DHT22;12680;57.804;12.190;2023-10-31T09:57:16;4.50;99.90
24522;DHT22;12680;57.804;12.190;2023-10-31T09:59:44;4.50;99.90
24522;DHT22;12680;57.804;12.190;2023-10-31T10:02:11;4.50;99.90
24522;DHT22;12680;57.804;12.190;2023-10-31T10:04:38;4.50;99.90
24522;DHT22;12680;57.804;12.190;2023-10-31T10:07:05;4.60;99.90
24522;DHT22;12680;57.804;12.190;2023-10-31T10:09:32;4.60;99.90
24522;DHT22;12680;57.804;12.190;2023-10-31T10:12:00;4.60;99.90
24522;DHT22;12680;57.804;12.190;2023-10-31T10:14:28;4.60;99.90
24522;DHT22;12680;57.804;12.190;2023-10-31T10:16:55;4.60;99.90
24522;DHT22;12680;57.804;12.190;2023-10-31T10:19:22;4.70;99.90
24522;DHT22;12680;57.804;12.190;2023-10-31T10:21:55;4.70;99.90
24522;DHT22;12680;57.804;12.190;2023-10-31T10:24:23;4.80;99.90
24522;DHT22;12680;57.804;12.190;2023-10-31T10:26:51;4.80;99.90
24522;DHT22;12680;57.804;12.190;2023-10-31T10:29:18;4.90;99.90
24522;DHT22;12680;57.804;12.190;2023-10-31T10:31:45;4.90;99.90
24522;DHT22;12680;57.804;12.190;2023-10-31T10:34:16;4.90;99.90
24522;DHT22;12680;57.804;12.190;2023-10-31T10:36:48;4.90;99.90
24522;DHT22;12680;57.804;12.190;2023-10-31T10:39:22;4.90;99.90
24522;DHT22;12680;57.804;12.190;2023-10-31T10:41:54;4.80;99.90
24522;DHT22;12680;57.804;12.190;2023-10-31T10:44:33;4.80;99.90
24522;DHT22;12680;57.804;12.190;2023-10-31T10:47:07;4.80;99.90
24522;DHT22;12680;57.804;12.190;2023-10-31T10:49:36;5.50;99.90
24522;DHT22;12680;57.804;12.190;2023-10-31T10:52:17;4.70;99.90
24522;DHT22;12680;57.804;12.190;2023-10-31T10:55:08;4.80;99.90
24522;DHT22;12680;57.804;12.190;2023-10-31T10:58:05;4.80;99.90
24522;DHT22;12680;57.804;12.190;2023-10-31T11:00:32;4.80;99.90
24522;DHT22;12680;57.804;12.190;2023-10-31T11:03:01;4.90;99.90
24522;DHT22;12680;57.804;12.190;2023-10-31T11:05:28;5.00;99.90
24522;DHT22;12680;57.804;12.190;2023-10-31T11:07:57;5.00;99.90
24522;DHT22;12680;57.804;12.190;2023-10-31T11:10:26;5.00;99.90
24522;DHT22;12680;57.804;12.190;2023-10-31T11:12:53;5.00;99.90
24522;DHT22;12680;57.804;12.190;2023-10-31T11:15:22;5.00;99.90
24522;DHT22;12680;57.804;12.190;2023-10-31T11:17:50;5.00;99.90
24522;DHT22;12680;57.804;12.190;2023-10-31T11:20:18;5.10;99.90
24522;DHT22;12680;57.804;12.190;2023-10-31T11:22:46;5.10;99.90
24522;DHT22;12680;57.804;12.190;2023-10-31T11:25:18;5.20;99.90
24522;DHT22;12680;57.804;12.190;2023-10-31T11:28:15;5.20;99.90
24522;DHT22;12680;57.804;12.190;2023-10-31T11:30:42;5.10;99.90
24522;DHT22;12680;57.804;12.190;2023-10-31T11:33:12;5.20;99.90
24522;DHT22;12680;57.804;12.190;2023-10-31T11:35:40;5.20;99.90
24522;DHT22;12680;57.804;12.190;2023-10-31T11:38:11;5.20;99.90
24522;DHT22;12680;57.804;12.190;2023-10-31T11:43:11;5.40;99.90
24522;DHT22;12680;57.804;12.190;2023-10-31T11:45:45;5.40;99.90
24522;DHT22;12680;57.804;12.190;2023-10-31T11:48:15;5.40;99.90
24522;DHT22;12680;57.804;12.190;2023-10-31T11:50:42;5.40;99.90
24522;DHT22;12680;57.804;12.190;2023-10-31T11:53:12;5.40;99.90
24522;DHT22;12680;57.804;12.190;2023-10-31T11:55:41;5.40;99.90
24522;DHT22;12680;57.804;12.190;2023-10-31T11:58:24;5.40;99.90
24522;DHT22;12680;57.804;12.190;2023-10-31T12:01:01;5.50;99.90
24522;DHT22;12680;57.804;12.190;2023-10-31T12:03:43;5.60;99.90
24522;DHT22;12680;57.804;12.190;2023-10-31T12:06:14;5.50;99.90
24522;DHT22;12680;57.804;12.190;2023-10-31T12:08:43;5.60;99.90
24522;DHT22;12680;57.804;12.190;2023-10-31T12:11:12;5.60;99.90
24522;DHT22;12680;57.804;12.190;2023-10-31T12:13:58;5.60;99.90
24522;DHT22;12680;57.804;12.190;2023-10-31T12:16:31;5.60;99.90
24522;DHT22;12680;57.804;12.190;2023-10-31T12:19:00;5.60;99.90
24522;DHT22;12680;57.804;12.190;2023-10-31T12:21:43;5.50;99.90
24522;DHT22;12680;57.804;12.190;2023-10-31T12:24:12;5.50;99.90
24522;DHT22;12680;57.804;12.190;2023-10-31T12:26:39;5.50;99.90
24522;DHT22;12680;57.804;12.190;2023-10-31T12:29:14;5.60;99.90
24522;DHT22;12680;57.804;12.190;2023-10-31T12:31:53;5.60;99.90
24522;DHT22;12680;57.804;12.190;2023-10-31T12:34:24;5.70;99.90
24522;DHT22;12680;57.804;12.190;2023-10-31T12:36:53;5.70;99.90
24522;DHT22;12680;57.804;12.190;2023-10-31T12:39:25;5.70;99.90
24522;DHT22;12680;57.804;12.190;2023-10-31T12:41:53;5.70;99.90
24522;DHT22;12680;57.804;12.190;2023-10-31T12:44:24;5.80;99.90
24522;DHT22;12680;57.804;12.190;2023-10-31T12:46:52;5.70;99.90
24522;DHT22;12680;57.804;12.190;2023-10-31T12:49:20;5.70;99.90
24522;DHT22;12680;57.804;12.190;2023-10-31T12:51:58;5.60;99.90
24522;DHT22;12680;57.804;12.190;2023-10-31T12:54:36;5.60;99.90
24522;DHT22;12680;57.804;12.190;2023-10-31T12:57:07;5.60;99.90
24522;DHT22;12680;57.804;12.190;2023-10-31T12:59:36;5.70;99.90
24522;DHT22;12680;57.804;12.190;2023-10-31T13:02:05;5.60;99.90
24522;DHT22;12680;57.804;12.190;2023-10-31T13:04:33;5.60;99.90
24522;DHT22;12680;57.804;12.190;2023-10-31T13:07:02;5.60;99.90
24522;DHT22;12680;57.804;12.190;2023-10-31T13:09:34;7.30;99.90
24522;DHT22;12680;57.804;12.190;2023-10-31T13:12:06;5.70;99.90
24522;DHT22;12680;57.804;12.190;2023-10-31T13:14:34;5.70;99.90
24522;DHT22;12680;57.804;12.190;2023-10-31T13:17:01;5.70;99.90
24522;DHT22;12680;57.804;12.190;2023-10-31T13:19:29;5.80;99.90
24522;DHT22;12680;57.804;12.190;2023-10-31T13:21:56;5.80;99.90
24522;DHT22;12680;57.804;12.190;2023-10-31T13:24:23;5.70;99.90
24522;DHT22;12680;57.804;12.190;2023-10-31T13:26:50;5.70;99.90
24522;DHT22;12680;57.804;12.190;2023-10-31T13:29:20;5.80;99.90
24522;DHT22;12680;57.804;12.190;2023-10-31T13:31:48;5.80;99.90
24522;DHT22;12680;57.804;12.190;2023-10-31T13:34:14;5.70;99.90
24522;DHT22;12680;57.804;12.190;2023-10-31T13:36:41;5.70;99.90
24522;DHT22;12680;57.804;12.190;2023-10-31T13:39:09;5.70;99.90
24522;DHT22;12680;57.804;12.190;2023-10-31T13:41:36;5.70;99.90
24522;DHT22;12680;57.804;12.190;2023-10-31T13:44:03;5.80;99.90
24522;DHT22;12680;57.804;12.190;2023-10-31T13:46:30;5.70;99.90
24522;DHT22;12680;57.804;12.190;2023-10-31T13:48:57;5.80;99.90
24522;DHT22;12680;57.804;12.190;2023-10-31T13:51:24;7.60;99.90
24522;DHT22;12680;57.804;12.190;2023-10-31T13:53:51;5.80;99.90
24522;DHT22;12680;57.804;12.190;2023-10-31T13:56:17;5.80;99.90
24522;DHT22;12680;57.804;12.190;2023-10-31T13:58:44;5.70;99.90
24522;DHT22;12680;57.804;12.190;2023-10-31T14:01:11;5.70;99.90
24522;DHT22;12680;57.804;12.190;2023-10-31T14:03:38;5.70;99.90
24522;DHT22;12680;57.804;12.190;2023-10-31T14:06:05;5.70;99.90
24522;DHT22;12680;57.804;12.190;2023-10-31T14:08:32;5.60;99.90
24522;DHT22;12680;57.804;12.190;2023-10-31T14:10:59;5.60;99.90
24522;DHT22;12680;57.804;12.190;2023-10-31T14:13:29;5.50;99.90
24522;DHT22;12680;57.804;12.190;2023-10-31T14:15:56;5.50;99.90
24522;DHT22;12680;57.804;12.190;2023-10-31T14:18:22;5.50;99.90
24522;DHT22;12680;57.804;12.190;2023-10-31T14:20:49;5.50;99.90
24522;DHT22;12680;57.804;12.190;2023-10-31T14:23:16;5.50;99.90
24522;DHT22;12680;57.804;12.190;2023-10-31T14:25:43;5.50;99.90
24522;DHT22;12680;57.804;12.190;2023-10-31T14:28:10;5.50;99.90
24522;DHT22;12680;57.804;12.190;2023-10-31T14:30:37;5.50;99.90
24522;DHT22;12680;57.804;12.190;2023-10-31T14:33:03;5.50;99.90
24522;DHT22;12680;57.804;12.190;2023-10-31T14:35:31;5.40;99.90
24522;DHT22;12680;57.804;12.190;2023-10-31T14:37:58;5.40;99.90
24522;DHT22;12680;57.804;12.190;2023-10-31T14:40:25;5.40;99.90
24522;DHT22;12680;57.804;12.190;2023-10-31T14:42:51;5.40;99.90
24522;DHT22;12680;57.804;12.190;2023-10-31T14:45:18;5.30;99.90
24522;DHT22;12680;57.804;12.190;2023-10-31T14:47:45;5.20;99.90
24522;DHT22;12680;57.804;12.190;2023-10-31T14:50:12;5.20;99.90
24522;DHT22;12680;57.804;12.190;2023-10-31T14:52:38;5.10;99.90
24522;DHT22;12680;57.804;12.190;2023-10-31T14:55:05;5.10;99.90
24522;DHT22;12680;57.804;12.190;2023-10-31T14:57:32;5.00;99.90
24522;DHT22;12680;57.804;12.190;2023-10-31T14:59:59;5.00;99.90
24522;DHT22;12680;57.804;12.190;2023-10-31T15:02:26;5.00;99.90
24522;DHT22;12680;57.804;12.190;2023-10-31T15:04:53;5.00;99.90
24522;DHT22;12680;57.804;12.190;2023-10-31T15:07:20;4.90;99.90
24522;DHT22;12680;57.804;12.190;2023-10-31T15:09:47;4.90;99.90
24522;DHT22;12680;57.804;12.190;2023-10-31T15:12:14;4.80;99.90
24522;DHT22;12680;57.804;12.190;2023-10-31T15:14:41;4.70;99.90
24522;DHT22;12680;57.804;12.190;2023-10-31T15:17:08;4.60;99.90
24522;DHT22;12680;57.804;12.190;2023-10-31T15:19:35;4.60;99.90
24522;DHT22;12680;57.804;12.190;2023-10-31T15:22:02;4.50;99.90
24522;DHT22;12680;57.804;12.190;2023-10-31T15:24:29;4.50;99.90
24522;DHT22;12680;57.804;12.190;2023-10-31T15:26:57;4.50;99.90
24522;DHT22;12680;57.804;12.190;2023-10-31T15:29:24;4.50;99.90
24522;DHT22;12680;57.804;12.190;2023-10-31T15:31:51;4.50;99.90
24522;DHT22;12680;57.804;12.190;2023-10-31T15:34:21;4.50;99.90
24522;DHT22;12680;57.804;12.190;2023-10-31T15:36:48;4.40;99.90